Fort Smith Regional Airport Fort Smith US
ICAO: KFSM
IATA: FSM
Category: Large
Scheduled Services: Yes

Elevation: 469 ft
TransAlt. 18000 ft.

Airport Communications:
RAZORBACK APP:35.357
RAZORBACK APP:120.175
ATIS:126.3
CLNC DEL:133.85
CTAF:118.3
RAZORBACK DEP:120.9
GND:121.9
JONESBORO RDO:122.2
TWR:118.3
UNICOM:122.95

KFSM Zoom In..

Runways:

(A) RW 01 length 5001 ft width 150 ft
---- / hdg 16

(B) RW 07 length 8017 ft width 150 ft
ILS 111.30 / hdg 76

(C) RW 19 length 5001 ft width 150 ft
---- / hdg 196

(D) RW 25 length 8017 ft width 150 ft
ILS 111.30 / hdg 256

Location; KFSM
Day. 21 / Time. 23.53 Zulu
* Altimeter: 29.73
* Temperature: 19° c. 66.2°f.
* Wind from: 210° Speed 14 kn with Gusts up to 19 kn.
Dewpoint: 15° c.
Visibility: 10 Statute Miles.
Clouds: Few 3900 ft.
Clouds: Broken 4700 ft.
Clouds: Overcast 5500 ft.
Conditions: Thunderstorm.

KFSM 212353Z 21014G19KT 170V240 10SM TS FEW039 BKN047 OVC055 19/15 A2973 RMK AO2 LTG DSNT SW AND W TSB36 SLP066 60001 T01940150 10239 20189 56007


Wind From 210°
Speed 14 kn.

jpsM music video
CHECK IT OUT

jpsM - It Moves..

 
jpsmedia.com for Web Design  worldairports.se 2018   terms of use